Frank Wiley Field Miles City US
ICAO: KMLS
IATA: MLS
Category: Medium
Scheduled Services: Yes

Elevation: 2630 ft
TransAlt. 18000 ft.

Airport Communications:
ASOS:135.575
GREAT FALLS RDO:122.2
CTAF/UNICOM:123

KMLS Zoom In..

If Map Doesn't Load, Click Here

Runways:

(A) RW 04 length 5680 ft width 75 ft
---- / hdg 40

(B) RW 12 length 5628 ft width 100 ft
---- / hdg 123

(C) RW 22 length 5680 ft width 75 ft
---- / hdg 220

(D) RW 30 length 5628 ft width 100 ft
---- / hdg 303

Location; KMLS
Day. 23 / Time. 07.53 Zulu
* Altimeter: 29.90
* Temperature: 08° c. 46.4°f.
* Wind from: 040° Speed 16 kn.
Dewpoint: 08° c.
Visibility: 10 Statute Miles.
Clouds: Overcast 600 ft.

KMLS 230753Z AUTO 04016KT 10SM OVC006 08/08 A2990 RMK AO2 SLP115 T00830078


Wind From 040°
Speed 16 kn.

 
 
jpsmedia.com for Web Design worldairports.se 2018   terms of use